Time;durP1;ratioP1;P1;durP2;ratioP2;P2;SDS_P1;SDS_P2;PMS_P1;PMS_P2;Temp;Humidity;BMP_temperature;BMP_pressure;BME280_temperature;BME280_humidity;BME280_pressure;Samples;Min_cycle;Max_cycle;Signal;HPM_P1;HPM_P2
2022/08/04 00:00:33;;;;;;;2.20;1.70;;;25.60;56.00;;;;;;7382160;19;20424;-46
2022/08/04 00:03:14;;;;;;;3.03;1.53;;;25.60;56.10;;;;;;7378664;19;20384;-46
2022/08/04 00:05:55;;;;;;;4.33;1.77;;;25.60;56.20;;;;;;7380095;19;20383;-46
2022/08/04 00:08:35;;;;;;;2.70;1.80;;;25.50;56.60;;;;;;7380190;19;20383;-46
2022/08/04 00:11:11;;;;;;;3.97;1.80;;;25.40;56.70;;;;;;7382076;19;20376;-46
2022/08/04 00:13:44;;;;;;;7.23;2.07;;;25.50;56.70;;;;;;7375858;19;20384;-46
2022/08/04 00:16:16;;;;;;;1.80;1.70;;;25.50;56.40;;;;;;7380050;19;20759;-46
2022/08/04 00:18:58;;;;;;;1.93;1.70;;;25.50;56.50;;;;;;7381892;19;20954;-46
2022/08/04 00:21:30;;;;;;;2.40;1.83;;;25.40;56.90;;;;;;7378497;19;20395;-46
2022/08/04 00:24:03;;;;;;;2.40;1.60;;;25.40;56.80;;;;;;7381981;19;20949;-46
2022/08/04 00:26:33;;;;;;;2.20;2.00;;;25.40;56.80;;;;;;7378426;19;20929;-46
2022/08/04 00:29:03;;;;;;;1.83;1.70;;;25.30;56.80;;;;;;7379046;19;20373;-46
2022/08/04 00:31:33;;;;;;;3.90;1.93;;;25.20;57.20;;;;;;7383920;19;20775;-46
2022/08/04 00:34:06;;;;;;;2.70;1.80;;;25.00;57.60;;;;;;7384248;19;20376;-46
2022/08/04 00:36:36;;;;;;;2.60;1.27;;;25.10;57.50;;;;;;7381372;19;20376;-46
2022/08/04 00:39:06;;;;;;;2.30;1.50;;;25.10;57.00;;;;;;7376892;19;20380;-46
2022/08/04 00:41:49;;;;;;;3.87;1.67;;;25.10;57.30;;;;;;7383021;19;20379;-46
2022/08/04 00:44:32;;;;;;;4.50;2.10;;;25.10;57.40;;;;;;7375042;19;20376;-46
2022/08/04 00:47:18;;;;;;;2.47;1.73;;;25.00;57.40;;;;;;7378945;19;20369;-46
2022/08/04 00:50:05;;;;;;;2.13;1.80;;;24.90;57.90;;;;;;7381643;19;20379;-46
2022/08/04 00:52:57;;;;;;;2.83;2.00;;;24.70;57.70;;;;;;7377902;19;20936;-46
2022/08/04 00:56:00;;;;;;;2.07;1.53;;;24.70;57.90;;;;;;7375579;19;20922;-46
2022/08/04 00:58:55;;;;;;;2.03;1.77;;;24.80;57.60;;;;;;7381903;19;20404;-45
2022/08/04 01:01:48;;;;;;;1.90;1.60;;;24.80;57.60;;;;;;7379458;19;20439;-46
2022/08/04 01:04:26;;;;;;;1.77;1.47;;;24.90;58.00;;;;;;7376815;19;20424;-46
2022/08/04 01:07:14;;;;;;;2.13;1.87;;;24.90;57.50;;;;;;7378475;19;20378;-46
2022/08/04 01:09:53;;;;;;;2.10;1.90;;;25.00;57.30;;;;;;7381848;19;20376;-46
2022/08/04 01:12:45;;;;;;;3.23;2.00;;;25.00;57.60;;;;;;7381029;19;20383;-46
2022/08/04 01:15:21;;;;;;;4.07;1.90;;;25.10;57.30;;;;;;7378976;19;20771;-46
2022/08/04 01:18:05;;;;;;;1.70;1.30;;;25.10;57.60;;;;;;7377503;19;20372;-46
2022/08/04 01:20:36;;;;;;;1.90;1.47;;;24.90;58.10;;;;;;7383013;19;20391;-46
2022/08/04 01:23:31;;;;;;;3.60;1.93;;;24.90;57.90;;;;;;7374562;19;20823;-46
2022/08/04 01:26:31;;;;;;;2.57;2.30;;;25.00;57.30;;;;;;7378921;19;21054;-45
2022/08/04 01:29:14;;;;;;;2.30;1.97;;;24.90;57.80;;;;;;7382127;19;20384;-46
2022/08/04 01:32:02;;;;;;;1.80;1.70;;;25.10;57.70;;;;;;7384954;19;20380;-46
2022/08/04 01:34:37;;;;;;;4.17;1.77;;;25.10;58.50;;;;;;7380028;19;20987;-46
2022/08/04 01:37:28;;;;;;;1.70;1.60;;;25.20;57.80;;;;;;7376612;19;20395;-46
2022/08/04 01:40:05;;;;;;;1.87;1.60;;;25.10;57.70;;;;;;7377266;19;20421;-46
2022/08/04 01:42:36;;;;;;;1.60;1.50;;;25.00;57.50;;;;;;7378214;19;20372;-46
2022/08/04 01:45:11;;;;;;;4.27;1.97;;;25.00;57.70;;;;;;7381664;19;21044;-46
2022/08/04 01:47:45;;;;;;;1.80;1.20;;;25.00;57.80;;;;;;7382138;19;20786;-46
2022/08/04 01:50:15;;;;;;;3.10;2.00;;;25.00;57.70;;;;;;7381288;19;20417;-46
2022/08/04 01:52:47;;;;;;;2.73;1.90;;;24.90;57.90;;;;;;7380022;19;21013;-46
2022/08/04 01:55:18;;;;;;;1.80;1.63;;;24.90;57.90;;;;;;7378263;19;20380;-46
2022/08/04 01:57:51;;;;;;;1.80;1.60;;;24.80;57.60;;;;;;7378597;19;20384;-46
2022/08/04 02:00:26;;;;;;;1.77;1.47;;;24.70;58.20;;;;;;7375453;19;20432;-46
2022/08/04 02:02:59;;;;;;;1.57;1.40;;;24.70;58.60;;;;;;7378515;19;20768;-46
2022/08/04 02:05:29;;;;;;;2.40;1.40;;;24.60;59.10;;;;;;7379098;19;20380;-45
2022/08/04 02:08:09;;;;;;;2.37;2.07;;;24.60;59.20;;;;;;7379311;19;20376;-46
2022/08/04 02:10:54;;;;;;;4.10;2.10;;;24.60;59.40;;;;;;7381847;19;20368;-46
2022/08/04 02:13:29;;;;;;;2.00;1.80;;;24.50;59.40;;;;;;7378194;19;20368;-46
2022/08/04 02:16:21;;;;;;;2.23;2.03;;;24.60;59.40;;;;;;7378933;19;20376;-46
2022/08/04 02:19:01;;;;;;;1.97;1.70;;;24.60;59.20;;;;;;7381303;19;20372;-46
2022/08/04 02:21:33;;;;;;;2.60;1.73;;;24.60;59.40;;;;;;7374323;19;21159;-46
2022/08/04 02:24:06;;;;;;;2.67;1.90;;;24.40;59.50;;;;;;7377813;19;20870;-46
2022/08/04 02:26:37;;;;;;;2.83;2.23;;;24.40;59.80;;;;;;7377191;19;20397;-46
2022/08/04 02:29:18;;;;;;;1.90;1.70;;;24.40;60.20;;;;;;7376118;19;20416;-46
2022/08/04 02:31:56;;;;;;;2.00;1.80;;;24.20;60.70;;;;;;7380739;19;20716;-46
2022/08/04 02:34:30;;;;;;;2.20;2.00;;;24.00;61.60;;;;;;7375664;19;20471;-45
2022/08/04 02:37:02;;;;;;;2.70;2.03;;;24.00;61.90;;;;;;7377835;19;20363;-46
2022/08/04 02:39:35;;;;;;;1.73;1.63;;;24.00;61.70;;;;;;7379525;19;20411;-46
2022/08/04 02:42:07;;;;;;;2.87;2.67;;;23.80;62.00;;;;;;7380859;19;20431;-46
2022/08/04 02:44:40;;;;;;;2.40;2.17;;;23.90;62.40;;;;;;7376107;19;20380;-47
2022/08/04 02:47:13;;;;;;;2.73;2.03;;;23.90;62.40;;;;;;7374635;19;20379;-46
2022/08/04 02:49:47;;;;;;;3.23;1.93;;;24.00;63.40;;;;;;7373195;19;20909;-46
2022/08/04 02:52:18;;;;;;;2.47;2.03;;;23.90;63.30;;;;;;7375590;19;20510;-46
2022/08/04 02:54:50;;;;;;;2.77;2.57;;;23.90;63.30;;;;;;7376054;19;21112;-46
2022/08/04 02:57:20;;;;;;;2.33;1.73;;;23.80;62.80;;;;;;7373649;19;20375;-46
2022/08/04 03:00:09;;;;;;;1.90;1.70;;;23.70;63.40;;;;;;7377670;19;20439;-46
2022/08/04 03:02:57;;;;;;;1.93;1.83;;;23.80;63.40;;;;;;7375429;19;20385;-46
2022/08/04 03:05:29;;;;;;;2.33;2.13;;;23.80;64.10;;;;;;7377942;19;20401;-46
2022/08/04 03:08:31;;;;;;;3.33;2.10;;;23.70;64.30;;;;;;7378975;19;20801;-46
2022/08/04 03:11:30;;;;;;;3.50;2.00;;;23.70;63.50;;;;;;7374441;19;20384;-46
2022/08/04 03:14:32;;;;;;;3.07;2.10;;;23.60;64.10;;;;;;7376131;19;20404;-46
2022/08/04 03:17:38;;;;;;;1.67;1.57;;;23.70;64.00;;;;;;7373049;19;20422;-46
2022/08/04 03:20:32;;;;;;;2.10;1.97;;;23.70;64.00;;;;;;7377163;19;20404;-46
2022/08/04 03:23:24;;;;;;;3.23;1.77;;;23.50;64.30;;;;;;7372980;19;21012;-46
2022/08/04 03:26:23;;;;;;;1.97;1.70;;;23.50;64.60;;;;;;7377888;19;20384;-46
2022/08/04 03:29:31;;;;;;;3.70;1.70;;;23.40;65.20;;;;;;7376757;19;20417;-46
2022/08/04 03:32:29;;;;;;;4.50;2.60;;;23.40;65.20;;;;;;7373713;19;20790;-46
2022/08/04 03:35:32;;;;;;;1.97;1.80;;;23.30;65.30;;;;;;7379698;19;20375;-46
2022/08/04 03:38:22;;;;;;;2.40;2.03;;;23.20;65.40;;;;;;7375396;19;20420;-46
2022/08/04 03:41:34;;;;;;;2.53;2.23;;;23.00;66.00;;;;;;7374754;19;20387;-46
2022/08/04 03:44:43;;;;;;;2.40;2.20;;;23.10;65.70;;;;;;7376391;19;20380;-46
2022/08/04 03:47:40;;;;;;;3.20;2.03;;;23.30;65.70;;;;;;7372904;19;20956;-46
2022/08/04 03:50:39;;;;;;;2.20;1.90;;;23.20;65.30;;;;;;7366262;19;21515;-46
2022/08/04 03:53:31;;;;;;;4.43;1.93;;;23.30;65.20;;;;;;7379028;19;20405;-46
2022/08/04 03:56:42;;;;;;;3.20;1.90;;;23.30;65.40;;;;;;7371218;19;20410;-46
2022/08/04 03:59:35;;;;;;;1.90;1.70;;;23.20;64.90;;;;;;7364602;19;20408;-46
2022/08/04 04:02:36;;;;;;;2.30;2.10;;;23.20;65.30;;;;;;7370515;19;20391;-45
2022/08/04 04:05:44;;;;;;;4.93;2.00;;;23.20;66.20;;;;;;7373665;19;20404;-46
2022/08/04 04:08:43;;;;;;;2.30;1.60;;;23.30;64.90;;;;;;7364764;19;20411;-46
2022/08/04 04:11:41;;;;;;;4.97;2.00;;;23.30;64.70;;;;;;7368179;19;21020;-46
2022/08/04 04:14:25;;;;;;;3.27;1.83;;;23.30;65.20;;;;;;7374450;19;20368;-46
2022/08/04 04:17:10;;;;;;;2.67;2.07;;;23.40;65.00;;;;;;7387762;19;20372;-46
2022/08/04 04:20:09;;;;;;;3.40;1.77;;;23.40;64.30;;;;;;7374241;19;20379;-45
2022/08/04 04:23:11;;;;;;;2.60;1.90;;;23.20;64.00;;;;;;7376086;19;20377;-46
2022/08/04 04:25:57;;;;;;;3.77;2.33;;;23.30;64.40;;;;;;7376336;19;20371;-46
2022/08/04 04:28:46;;;;;;;2.53;1.63;;;23.20;65.40;;;;;;7375540;19;20368;-45
2022/08/04 04:31:35;;;;;;;1.80;1.70;;;23.20;65.20;;;;;;7376749;19;20372;-45
2022/08/04 04:34:26;;;;;;;2.03;1.73;;;23.20;65.20;;;;;;7379072;19;20724;-45
2022/08/04 04:37:14;;;;;;;3.60;2.73;;;23.30;64.20;;;;;;7371699;19;20420;-46
2022/08/04 04:39:59;;;;;;;1.60;1.50;;;23.40;63.10;;;;;;7374595;19;20853;-46
2022/08/04 04:42:49;;;;;;;2.03;1.63;;;23.40;62.70;;;;;;7372236;19;20416;-46
2022/08/04 04:45:26;;;;;;;3.13;2.17;;;23.50;61.90;;;;;;7374641;19;20372;-46
2022/08/04 04:48:09;;;;;;;3.20;1.80;;;23.50;63.20;;;;;;7370343;19;20382;-46
2022/08/04 04:50:54;;;;;;;1.80;1.63;;;23.60;61.90;;;;;;7373389;19;20383;-45
2022/08/04 04:53:35;;;;;;;1.53;1.43;;;23.60;62.50;;;;;;7370685;19;20369;-46
2022/08/04 04:56:10;;;;;;;1.80;1.67;;;23.60;63.40;;;;;;7370853;19;20364;-46
2022/08/04 04:58:46;;;;;;;4.53;2.27;;;23.70;63.40;;;;;;7374299;19;20364;-46
2022/08/04 05:01:43;;;;;;;2.60;2.20;;;23.70;63.40;;;;;;7369166;19;20437;-46
2022/08/04 05:04:38;;;;;;;1.97;1.70;;;23.70;62.70;;;;;;7366733;19;20403;-45
2022/08/04 05:07:49;;;;;;;2.20;1.80;;;23.90;63.00;;;;;;7369348;19;20386;-46
2022/08/04 05:10:29;;;;;;;2.80;1.97;;;24.00;62.50;;;;;;7368473;19;20434;-47
2022/08/04 05:13:15;;;;;;;1.90;1.80;;;23.80;62.70;;;;;;7378149;19;20372;-46
2022/08/04 05:15:51;;;;;;;2.57;1.67;;;23.60;63.50;;;;;;7381376;19;20395;-46
2022/08/04 05:18:26;;;;;;;5.80;2.00;;;23.60;63.30;;;;;;7369962;19;22401;-46
2022/08/04 05:20:59;;;;;;;3.00;1.47;;;23.60;63.10;;;;;;7369739;19;20376;-45
2022/08/04 05:23:32;;;;;;;2.20;1.60;;;23.70;63.30;;;;;;7369077;19;20380;-46
2022/08/04 05:26:06;;;;;;;2.97;1.77;;;23.70;62.60;;;;;;7376184;19;20374;-47
2022/08/04 05:28:42;;;;;;;2.73;1.80;;;23.80;62.60;;;;;;7376944;19;20383;-46
2022/08/04 05:31:20;;;;;;;2.40;1.90;;;23.70;63.10;;;;;;7369290;19;20372;-45
2022/08/04 05:33:53;;;;;;;3.87;2.00;;;23.90;62.00;;;;;;7373944;19;20364;-46
2022/08/04 05:36:26;;;;;;;2.03;1.90;;;24.10;62.10;;;;;;7380256;19;20860;-46
2022/08/04 05:39:00;;;;;;;1.83;1.60;;;24.20;62.40;;;;;;7378764;19;20404;-46
2022/08/04 05:41:31;;;;;;;3.00;2.07;;;24.30;61.40;;;;;;7364467;19;20375;-46
2022/08/04 05:44:02;;;;;;;3.23;2.27;;;24.50;60.80;;;;;;7367527;19;20372;-46
2022/08/04 05:46:37;;;;;;;4.20;2.00;;;24.60;60.10;;;;;;7369468;19;20352;-46
2022/08/04 05:49:08;;;;;;;2.57;2.17;;;24.70;59.50;;;;;;7367483;19;20384;-46
2022/08/04 05:51:37;;;;;;;2.97;1.97;;;24.70;60.00;;;;;;7380645;19;20377;-46
2022/08/04 05:54:08;;;;;;;3.93;2.30;;;24.80;59.10;;;;;;7383458;19;20380;-46
2022/08/04 05:56:38;;;;;;;2.90;2.40;;;24.90;59.10;;;;;;7381413;19;20380;-46
2022/08/04 05:59:09;;;;;;;3.37;3.03;;;24.90;59.50;;;;;;7381263;19;20384;-46
2022/08/04 06:01:42;;;;;;;2.33;2.13;;;25.00;59.60;;;;;;7372540;19;20432;-47
2022/08/04 06:04:13;;;;;;;3.50;1.80;;;25.30;58.80;;;;;;7380961;19;20392;-46
2022/08/04 06:06:43;;;;;;;3.00;2.27;;;25.30;58.60;;;;;;7384845;19;20372;-47
2022/08/04 06:09:15;;;;;;;3.10;2.20;;;25.50;59.10;;;;;;7383257;19;20761;-47
2022/08/04 06:11:47;;;;;;;2.60;2.10;;;25.60;58.80;;;;;;7381155;19;20419;-46
2022/08/04 06:14:18;;;;;;;3.60;2.53;;;25.70;58.80;;;;;;7384902;19;20368;-46
2022/08/04 06:16:51;;;;;;;3.63;2.20;;;25.70;59.00;;;;;;7378496;19;20423;-46
2022/08/04 06:19:23;;;;;;;2.07;1.87;;;25.90;58.00;;;;;;7367862;19;20376;-46
2022/08/04 06:21:55;;;;;;;4.07;2.43;;;26.10;57.40;;;;;;7373292;19;20503;-46
2022/08/04 06:24:29;;;;;;;4.70;2.33;;;26.30;56.70;;;;;;7378689;19;20385;-46
2022/08/04 06:26:59;;;;;;;2.53;2.03;;;26.40;56.70;;;;;;7382141;19;20383;-46
2022/08/04 06:29:34;;;;;;;4.13;1.83;;;26.50;57.10;;;;;;7384122;19;20376;-46
2022/08/04 06:32:23;;;;;;;4.50;2.47;;;26.60;56.40;;;;;;7382560;19;20434;-46
2022/08/04 06:34:55;;;;;;;4.03;2.30;;;26.80;56.00;;;;;;7382745;19;20938;-46
2022/08/04 06:37:26;;;;;;;2.17;1.97;;;27.00;55.50;;;;;;7383131;19;20376;-46
2022/08/04 06:39:57;;;;;;;3.10;2.10;;;27.10;54.80;;;;;;7382429;19;20384;-46
2022/08/04 06:42:28;;;;;;;3.47;2.50;;;27.20;55.10;;;;;;7382997;19;20380;-46
2022/08/04 06:45:00;;;;;;;2.60;2.13;;;27.30;55.10;;;;;;7382699;19;20420;-46
2022/08/04 06:47:34;;;;;;;2.70;2.00;;;27.40;54.80;;;;;;7381927;19;20924;-46
2022/08/04 06:50:06;;;;;;;3.40;2.20;;;27.60;54.80;;;;;;7382493;19;20414;-46
2022/08/04 06:52:36;;;;;;;3.00;2.20;;;27.70;54.30;;;;;;7382014;19;20387;-46
2022/08/04 06:55:10;;;;;;;3.40;2.40;;;27.90;54.10;;;;;;7382092;19;20368;-48
2022/08/04 06:57:42;;;;;;;5.07;2.60;;;28.00;53.90;;;;;;7385053;19;20368;-47
2022/08/04 07:00:14;;;;;;;3.23;2.20;;;28.10;53.60;;;;;;7381057;19;20444;-47
2022/08/04 07:02:49;;;;;;;4.30;2.47;;;28.30;53.10;;;;;;7382675;19;20487;-47
2022/08/04 07:05:20;;;;;;;4.90;2.97;;;28.40;52.60;;;;;;7379527;19;20388;-47
2022/08/04 07:07:51;;;;;;;6.30;2.43;;;28.50;52.80;;;;;;7383309;19;20418;-47
2022/08/04 07:10:20;;;;;;;2.90;2.27;;;28.70;52.20;;;;;;7381724;19;20748;-47
2022/08/04 07:12:51;;;;;;;2.50;2.30;;;28.80;52.00;;;;;;7384342;19;20384;-47
2022/08/04 07:15:21;;;;;;;4.80;2.67;;;28.90;52.10;;;;;;7380210;19;20408;-47
2022/08/04 07:17:53;;;;;;;7.77;3.30;;;29.00;51.20;;;;;;7383411;19;20376;-47
2022/08/04 07:20:23;;;;;;;7.43;3.53;;;29.20;51.50;;;;;;7383334;19;20921;-47
2022/08/04 07:22:52;;;;;;;3.37;2.70;;;29.30;51.00;;;;;;7384364;19;21459;-48
2022/08/04 07:25:24;;;;;;;2.77;2.43;;;29.50;51.10;;;;;;7378283;19;20377;-47
2022/08/04 07:27:57;;;;;;;3.37;2.10;;;29.60;49.40;;;;;;7383951;19;20388;-47
2022/08/04 07:30:28;;;;;;;4.20;2.70;;;29.70;50.40;;;;;;7380772;19;20910;-47
2022/08/04 07:33:03;;;;;;;3.90;2.37;;;29.80;50.10;;;;;;7381771;19;20384;-47
2022/08/04 07:35:33;;;;;;;3.20;2.03;;;29.90;49.60;;;;;;7381943;19;20754;-47
2022/08/04 07:38:02;;;;;;;4.20;2.50;;;30.10;49.50;;;;;;7382510;19;20409;-47
2022/08/04 07:40:32;;;;;;;3.20;2.03;;;30.10;52.20;;;;;;7383105;19;20974;-47
2022/08/04 07:43:02;;;;;;;3.57;2.23;;;30.30;49.00;;;;;;7382290;19;20483;-47
2022/08/04 07:45:32;;;;;;;3.77;3.23;;;30.50;48.00;;;;;;7379240;19;20416;-47
2022/08/04 07:48:07;;;;;;;4.43;2.50;;;30.60;47.70;;;;;;7384295;19;21016;-47
2022/08/04 07:50:37;;;;;;;2.40;2.07;;;30.80;46.80;;;;;;7390283;19;20464;-48
2022/08/04 07:53:07;;;;;;;3.90;2.43;;;30.70;45.80;;;;;;7389843;19;20467;-47
2022/08/04 07:55:37;;;;;;;4.80;3.00;;;30.90;46.10;;;;;;7387017;19;20380;-47
2022/08/04 07:58:07;;;;;;;3.40;2.20;;;31.00;45.80;;;;;;7389116;19;20376;-47
2022/08/04 08:00:36;;;;;;;3.27;1.97;;;31.20;45.50;;;;;;7386274;19;20432;-47
2022/08/04 08:03:09;;;;;;;4.20;2.20;;;31.40;45.30;;;;;;7386725;19;20403;-47
2022/08/04 08:05:41;;;;;;;3.67;2.30;;;31.60;44.50;;;;;;7384615;19;21002;-47
2022/08/04 08:08:10;;;;;;;2.90;2.13;;;31.80;44.50;;;;;;7388853;19;20451;-47
2022/08/04 08:10:41;;;;;;;2.40;1.73;;;31.90;43.70;;;;;;7389612;19;20387;-47
2022/08/04 08:13:13;;;;;;;2.13;1.93;;;32.10;44.00;;;;;;7387102;19;20379;-48
2022/08/04 08:15:45;;;;;;;3.70;2.13;;;32.20;43.50;;;;;;7389436;19;20383;-48
2022/08/04 08:18:17;;;;;;;6.30;2.43;;;32.40;43.30;;;;;;7386391;19;21302;-47
2022/08/04 08:20:48;;;;;;;4.13;1.80;;;32.60;42.80;;;;;;7387498;19;20413;-47
2022/08/04 08:23:19;;;;;;;4.00;2.33;;;32.60;42.90;;;;;;7386343;19;20383;-48
2022/08/04 08:25:51;;;;;;;2.63;1.73;;;32.70;43.00;;;;;;7385532;19;20376;-48
2022/08/04 08:28:21;;;;;;;3.33;2.60;;;32.90;42.40;;;;;;7389436;19;20943;-47
2022/08/04 08:30:50;;;;;;;6.60;2.07;;;33.10;42.10;;;;;;7388106;19;21001;-47
2022/08/04 08:33:27;;;;;;;4.63;2.10;;;33.20;41.70;;;;;;7385573;19;20410;-47
2022/08/04 08:36:06;;;;;;;4.50;2.33;;;33.40;41.60;;;;;;7385626;19;20431;-48
2022/08/04 08:38:44;;;;;;;3.00;2.17;;;33.50;41.00;;;;;;7387519;19;20388;-48
2022/08/04 08:41:55;;;;;;;2.47;2.10;;;33.60;41.10;;;;;;7386815;19;20776;-47
2022/08/04 08:45:12;;;;;;;3.20;1.87;;;33.70;40.80;;;;;;7386871;19;20391;-47
2022/08/04 08:48:12;;;;;;;3.43;2.57;;;33.90;40.50;;;;;;7386034;19;20393;-47
2022/08/04 08:51:10;;;;;;;4.27;2.20;;;34.20;40.40;;;;;;7387099;19;20416;-47
2022/08/04 08:54:22;;;;;;;2.30;2.10;;;34.50;40.20;;;;;;7387816;19;20381;-47
2022/08/04 08:57:01;;;;;;;5.37;2.10;;;34.80;39.40;;;;;;7384776;19;20424;-47
2022/08/04 08:59:45;;;;;;;2.30;2.07;;;35.00;39.30;;;;;;7383892;19;20921;-47
2022/08/04 09:02:35;;;;;;;6.33;2.17;;;35.40;38.60;;;;;;7386693;19;20401;-47
2022/08/04 09:05:26;;;;;;;5.70;3.40;;;35.70;38.30;;;;;;7384900;19;20856;-47
2022/08/04 09:08:24;;;;;;;4.13;2.40;;;35.90;38.40;;;;;;7385576;19;20381;-47
2022/08/04 09:11:00;;;;;;;3.70;1.93;;;36.10;37.20;;;;;;7385414;19;20375;-48
2022/08/04 09:13:37;;;;;;;4.00;2.00;;;36.40;37.30;;;;;;7387315;19;21032;-48
2022/08/04 09:16:20;;;;;;;2.77;1.90;;;36.70;36.90;;;;;;7386809;19;20452;-48
2022/08/04 09:18:56;;;;;;;4.10;2.03;;;37.00;36.20;;;;;;7386461;19;20389;-48
2022/08/04 09:21:36;;;;;;;2.43;2.07;;;37.30;36.00;;;;;;7388084;19;20364;-48
2022/08/04 09:24:14;;;;;;;5.63;2.27;;;37.50;35.60;;;;;;7383929;19;21032;-48
2022/08/04 09:26:51;;;;;;;5.93;2.40;;;37.90;35.40;;;;;;7387808;19;20412;-48
2022/08/04 09:29:35;;;;;;;1.80;1.70;;;38.20;34.80;;;;;;7387068;19;20817;-48
2022/08/04 09:32:13;;;;;;;4.90;2.00;;;38.20;34.80;;;;;;7384838;19;20372;-48
2022/08/04 09:34:52;;;;;;;6.43;2.20;;;38.70;33.70;;;;;;7384467;19;20413;-48
2022/08/04 09:37:32;;;;;;;2.63;1.80;;;39.00;32.80;;;;;;7385170;19;20487;-48
2022/08/04 09:40:12;;;;;;;2.70;2.03;;;39.30;32.00;;;;;;7387511;19;21114;-48
2022/08/04 09:42:53;;;;;;;4.70;2.43;;;39.60;32.30;;;;;;7387111;19;21362;-47
2022/08/04 09:45:35;;;;;;;2.43;1.97;;;40.20;31.70;;;;;;7382493;19;20377;-47
2022/08/04 09:48:10;;;;;;;3.00;1.97;;;40.50;31.40;;;;;;7386353;19;20365;-48
2022/08/04 09:50:42;;;;;;;5.97;5.03;;;40.90;31.00;;;;;;7385969;19;20392;-48
2022/08/04 09:53:38;;;;;;;4.60;2.30;;;41.40;30.40;;;;;;7384380;19;20383;-48
2022/08/04 09:56:16;;;;;;;24.40;3.60;;;42.20;28.90;;;;;;7385028;19;20386;-48
2022/08/04 09:58:55;;;;;;;8.93;2.80;;;42.60;29.00;;;;;;7383395;19;20382;-48
2022/08/04 10:01:30;;;;;;;2.67;1.57;;;43.10;28.50;;;;;;7382062;19;20428;-48
2022/08/04 10:04:05;;;;;;;3.60;1.87;;;43.50;28.10;;;;;;7382494;19;20404;-48
2022/08/04 10:06:49;;;;;;;2.10;1.73;;;43.50;27.90;;;;;;7385751;19;20371;-48
2022/08/04 10:09:44;;;;;;;6.20;1.90;;;43.60;26.60;;;;;;7384155;19;20505;-48
2022/08/04 10:12:33;;;;;;;2.30;2.10;;;43.60;26.80;;;;;;7385179;19;20383;-48
2022/08/04 10:15:16;;;;;;;3.90;1.73;;;43.60;27.00;;;;;;7385430;19;20391;-48
2022/08/04 10:18:09;;;;;;;2.60;1.73;;;43.90;26.90;;;;;;7383374;19;20391;-48
2022/08/04 10:20:52;;;;;;;1.80;1.70;;;44.50;26.60;;;;;;7386104;19;20377;-48
2022/08/04 10:23:32;;;;;;;2.07;1.87;;;45.10;38.40;;;;;;7385747;19;20372;-48
2022/08/04 10:26:14;;;;;;;1.97;1.80;;;45.40;38.50;;;;;;7383097;19;20422;-48
2022/08/04 10:28:53;;;;;;;1.83;1.63;;;45.80;25.70;;;;;;7385305;19;20372;-48
2022/08/04 10:31:28;;;;;;;2.33;1.53;;;45.70;24.80;;;;;;7383587;19;20372;-48
2022/08/04 10:34:03;;;;;;;2.90;1.77;;;45.30;25.40;;;;;;7384034;19;20426;-48
2022/08/04 10:36:46;;;;;;;1.73;1.60;;;45.90;24.90;;;;;;7382640;19;20952;-48
2022/08/04 10:39:18;;;;;;;2.90;2.03;;;45.90;25.10;;;;;;7383789;19;20383;-48
2022/08/04 10:41:55;;;;;;;2.17;1.80;;;45.90;24.70;;;;;;7382563;19;20384;-48
2022/08/04 10:44:42;;;;;;;1.50;1.40;;;46.60;24.20;;;;;;7382330;19;20407;-48
2022/08/04 10:47:19;;;;;;;1.80;1.60;;;46.80;24.00;;;;;;7382388;19;20380;-49
2022/08/04 10:49:56;;;;;;;1.57;1.47;;;47.40;23.70;;;;;;7383354;19;20372;-48
2022/08/04 10:52:34;;;;;;;1.83;1.73;;;47.80;23.30;;;;;;7381957;19;20421;-48
2022/08/04 10:55:09;;;;;;;1.70;1.60;;;48.20;23.00;;;;;;7382817;19;20375;-48
2022/08/04 10:57:46;;;;;;;2.87;1.70;;;48.10;22.50;;;;;;7381866;19;20372;-49
2022/08/04 11:00:25;;;;;;;1.70;1.60;;;48.80;22.70;;;;;;7380616;19;20432;-49
2022/08/04 11:03:02;;;;;;;1.83;1.60;;;49.30;21.80;;;;;;7380480;19;20396;-49
2022/08/04 11:05:38;;;;;;;2.17;1.57;;;48.60;22.40;;;;;;7383202;19;20376;-49
2022/08/04 11:08:13;;;;;;;2.07;1.87;;;48.40;22.20;;;;;;7380336;19;20380;-49
2022/08/04 11:10:48;;;;;;;2.23;1.63;;;48.40;22.40;;;;;;7384208;19;20423;-49
2022/08/04 11:13:19;;;;;;;6.20;2.47;;;48.60;21.80;;;;;;7381855;19;20380;-49
2022/08/04 11:15:55;;;;;;;4.00;1.80;;;48.60;22.10;;;;;;7381007;19;20405;-49
2022/08/04 11:18:35;;;;;;;3.20;3.00;;;48.80;21.90;;;;;;7382954;19;20376;-49
2022/08/04 11:21:14;;;;;;;3.37;2.00;;;48.80;21.70;;;;;;7383639;19;20371;-49
2022/08/04 11:23:57;;;;;;;2.20;1.33;;;48.30;21.90;;;;;;7382368;19;20370;-49
2022/08/04 11:26:39;;;;;;;2.20;1.50;;;48.00;22.10;;;;;;7380624;19;21180;-49
2022/08/04 11:29:18;;;;;;;2.17;1.70;;;47.80;22.10;;;;;;7384284;19;20463;-49
2022/08/04 11:31:52;;;;;;;1.90;1.80;;;48.20;21.90;;;;;;7381266;19;20371;-50
2022/08/04 11:34:24;;;;;;;3.10;1.60;;;48.60;22.10;;;;;;7382764;19;20380;-49
2022/08/04 11:37:01;;;;;;;1.73;1.63;;;49.50;21.50;;;;;;7382075;19;20818;-50
2022/08/04 11:39:36;;;;;;;2.47;1.67;;;50.40;21.10;;;;;;7382177;19;20833;-50
2022/08/04 11:42:15;;;;;;;2.27;1.50;;;50.40;21.00;;;;;;7380252;19;20391;-50
2022/08/04 11:44:50;;;;;;;1.97;1.60;;;50.40;20.90;;;;;;7381069;19;20897;-50
2022/08/04 11:47:31;;;;;;;3.40;1.60;;;50.40;21.00;;;;;;7381700;19;20379;-49
2022/08/04 11:50:05;;;;;;;1.70;1.60;;;49.70;20.80;;;;;;7381958;19;20479;-49
2022/08/04 11:52:37;;;;;;;1.40;1.30;;;48.50;21.60;;;;;;7382172;19;21150;-49
2022/08/04 11:55:10;;;;;;;1.77;1.67;;;48.50;21.70;;;;;;7384211;19;20395;-50
2022/08/04 11:57:40;;;;;;;2.00;1.90;;;50.00;21.20;;;;;;7382765;19;20404;-50
2022/08/04 12:00:13;;;;;;;3.73;2.00;;;50.70;20.40;;;;;;7380205;19;20962;-50
2022/08/04 12:03:16;;;;;;;1.67;1.57;;;50.80;20.30;;;;;;7381533;19;21161;-50
2022/08/04 12:06:00;;;;;;;1.80;1.70;;;50.50;20.50;;;;;;7378878;19;20443;-50
2022/08/04 12:08:43;;;;;;;1.67;1.57;;;50.90;20.30;;;;;;7380637;19;20435;-50
2022/08/04 12:11:26;;;;;;;1.63;1.53;;;51.10;20.70;;;;;;7381289;19;20371;-50
2022/08/04 12:14:05;;;;;;;1.50;1.40;;;51.70;20.00;;;;;;7380984;19;20814;-50
2022/08/04 12:16:48;;;;;;;2.33;1.80;;;52.40;19.90;;;;;;7383012;19;20372;-50
2022/08/04 12:19:28;;;;;;;1.73;1.63;;;52.90;19.50;;;;;;7380895;19;20371;-50
2022/08/04 12:22:06;;;;;;;3.27;1.87;;;52.20;19.60;;;;;;7382667;19;21030;-50
2022/08/04 12:24:40;;;;;;;3.37;1.60;;;51.20;20.00;;;;;;7382344;19;20386;-50
2022/08/04 12:27:15;;;;;;;1.77;1.40;;;51.10;20.20;;;;;;7377570;19;20700;-50
2022/08/04 12:29:47;;;;;;;2.13;1.90;;;51.00;20.30;;;;;;7382037;19;20391;-49
2022/08/04 12:32:25;;;;;;;2.47;2.00;;;49.50;20.90;;;;;;7382503;19;20379;-50
2022/08/04 12:35:10;;;;;;;2.33;1.80;;;48.80;21.50;;;;;;7383110;19;20452;-49
2022/08/04 12:37:50;;;;;;;1.73;1.50;;;48.20;21.80;;;;;;7388552;19;20377;-49
2022/08/04 12:40:26;;;;;;;1.83;1.73;;;47.50;22.20;;;;;;7388975;19;20409;-49
2022/08/04 12:43:04;;;;;;;2.13;1.57;;;47.80;22.20;;;;;;7389773;19;20898;-49
2022/08/04 12:45:35;;;;;;;3.00;1.80;;;48.30;21.60;;;;;;7388562;19;20383;-49
2022/08/04 12:48:10;;;;;;;1.73;1.63;;;47.50;22.10;;;;;;7389618;19;20420;-49
2022/08/04 12:50:41;;;;;;;3.67;1.80;;;46.80;22.50;;;;;;7389725;19;20737;-49
2022/08/04 12:53:18;;;;;;;3.17;1.87;;;46.30;23.50;;;;;;7389603;19;20387;-49
2022/08/04 12:55:50;;;;;;;2.60;1.80;;;46.30;22.90;;;;;;7388045;19;20414;-48
2022/08/04 12:58:26;;;;;;;1.73;1.63;;;45.80;23.20;;;;;;7387250;19;20372;-48
2022/08/04 13:01:00;;;;;;;2.10;1.93;;;45.40;23.40;;;;;;7386651;19;20465;-49
2022/08/04 13:03:38;;;;;;;1.70;1.60;;;45.00;23.70;;;;;;7386911;19;20396;-48
2022/08/04 13:06:09;;;;;;;3.00;2.13;;;44.40;24.10;;;;;;7383763;19;20451;-48
2022/08/04 13:08:47;;;;;;;2.63;2.00;;;43.90;24.40;;;;;;7389145;19;20453;-48
2022/08/04 13:11:19;;;;;;;2.40;2.20;;;43.30;24.70;;;;;;7388318;19;20376;-47
2022/08/04 13:13:57;;;;;;;2.37;1.80;;;42.70;25.30;;;;;;7389089;19;20908;-48
2022/08/04 13:16:35;;;;;;;2.40;2.20;;;42.50;25.60;;;;;;7364519;19;20384;-48
2022/08/04 13:19:09;;;;;;;2.50;2.30;;;42.10;25.80;;;;;;7385251;19;20368;-48
2022/08/04 13:21:44;;;;;;;1.90;1.70;;;41.60;26.30;;;;;;7388384;19;20401;-48
2022/08/04 13:24:19;;;;;;;2.53;1.90;;;41.30;26.40;;;;;;7386855;19;20493;-49
2022/08/04 13:26:52;;;;;;;2.30;2.00;;;41.00;26.60;;;;;;7384635;19;20771;-48
2022/08/04 13:29:25;;;;;;;3.50;2.37;;;40.50;27.40;;;;;;7386010;19;20722;-48
2022/08/04 13:31:55;;;;;;;2.20;1.90;;;40.30;27.00;;;;;;7386918;19;20405;-47
2022/08/04 13:34:30;;;;;;;2.57;1.90;;;40.20;27.10;;;;;;7386412;19;20901;-48
2022/08/04 13:37:03;;;;;;;2.83;2.07;;;40.00;27.40;;;;;;7385079;19;20388;-48
2022/08/04 13:39:36;;;;;;;2.00;1.90;;;40.00;27.10;;;;;;7386670;19;20894;-48
2022/08/04 13:42:14;;;;;;;4.10;2.50;;;39.90;27.50;;;;;;7386439;19;21064;-48
2022/08/04 13:44:48;;;;;;;4.43;2.20;;;39.70;28.00;;;;;;7386036;19;20386;-48
2022/08/04 13:47:22;;;;;;;3.53;2.10;;;39.50;27.90;;;;;;7383033;19;20379;-48
2022/08/04 13:50:16;;;;;;;1.87;1.77;;;39.50;28.00;;;;;;7386572;19;20482;-48